Time;durP1;ratioP1;P1;durP2;ratioP2;P2;SDS_P1;SDS_P2;PMS_P1;PMS_P2;Temp;Humidity;BMP_temperature;BMP_pressure;BME280_temperature;BME280_humidity;BME280_pressure;Samples;Min_cycle;Max_cycle;Signal;HPM_P1;HPM_P2
2023/04/25 00:01:47;;;;;;;;;;;;;;;;;;4904705;29;19919;-82
2023/04/25 00:04:12;;;;;;;;;;;;;;;;;;4905949;29;19910;-83
2023/04/25 00:06:39;;;;;;;;;;;;;;;;;;4906265;29;19899;-82
2023/04/25 00:09:07;;;;;;;;;;;;;;;;;;4909210;29;19916;-83
2023/04/25 00:11:32;;;;;;;;;;;;;;;;;;4898686;29;20062;-84
2023/04/25 00:13:59;;;;;;;;;;;;;;;;;;4882040;29;19916;-86
2023/04/25 00:16:25;;;;;;;;;;;;;;;;;;4898259;29;19915;-82
2023/04/25 00:18:53;;;;;;;;;;;;;;;;;;4900404;29;19970;-80
2023/04/25 00:21:19;;;;;;;;;;;;;;;;;;4906277;29;19916;-85
2023/04/25 00:23:45;;;;;;;;;;;;;;;;;;4903107;29;20001;-85
2023/04/25 00:26:11;;;;;;;;;;;;;;;;;;4894033;29;19916;-87
2023/04/25 00:28:37;;;;;;;;;;;;;;;;;;4919767;29;20442;-88
2023/04/25 00:31:02;;;;;;;;;;;;;;;;;;4919044;29;19938;-88
2023/04/25 00:33:28;;;;;;;;;;;;;;;;;;4887978;29;19939;-86
2023/04/25 00:35:53;;;;;;;;;;;;;;;;;;4890378;29;20022;-85
2023/04/25 00:38:19;;;;;;;;;;;;;;;;;;4898914;29;19919;-83
2023/04/25 00:40:44;;;;;;;;;;;;;;;;;;4918964;29;19951;-82
2023/04/25 00:43:10;;;;;;;;;;;;;;;;;;4904573;29;19900;-82
2023/04/25 00:45:36;;;;;;;;;;;;;;;;;;4921677;29;20297;-83
2023/04/25 00:48:03;;;;;;;;;;;;;;;;;;4905321;29;19924;-84
2023/04/25 00:50:28;;;;;;;;;;;;;;;;;;4936385;29;19955;-83
2023/04/25 00:52:54;;;;;;;;;;;;;;;;;;4940098;29;19915;-83
2023/04/25 00:55:20;;;;;;;;;;;;;;;;;;4916406;29;19915;-81
2023/04/25 00:57:46;;;;;;;;;;;;;;;;;;4905252;29;19907;-83
2023/04/25 01:00:14;;;;;;;;;;;;;;;;;;4888558;29;19919;-83
2023/04/25 01:02:40;;;;;;;;;;;;;;;;;;4919222;29;19915;-81
2023/04/25 01:05:05;;;;;;;;;;;;;;;;;;4893975;29;19923;-84
2023/04/25 01:07:32;;;;;;;;;;;;;;;;;;4941036;29;19908;-83
2023/04/25 01:09:58;;;;;;;;;;;;;;;;;;4940353;28;19919;-83
2023/04/25 01:12:23;;;;;;;;;;;;;;;;;;4939102;29;19931;-82
2023/04/25 01:14:49;;;;;;;;;;;;;;;;;;4920087;29;19915;-84
2023/04/25 01:17:15;;;;;;;;;;;;;;;;;;4904185;29;19906;-81
2023/04/25 01:19:41;;;;;;;;;;;;;;;;;;4919617;29;19923;-82
2023/04/25 01:22:06;;;;;;;;;;;;;;;;;;4903310;29;19982;-81
2023/04/25 01:24:32;;;;;;;;;;;;;;;;;;4915005;29;19915;-85
2023/04/25 01:26:57;;;;;;;;;;;;;;;;;;4885527;29;19947;-84
2023/04/25 01:29:24;;;;;;;;;;;;;;;;;;4902708;29;19915;-83
2023/04/25 01:31:50;;;;;;;;;;;;;;;;;;4914542;29;19954;-86
2023/04/25 01:34:15;;;;;;;;;;;;;;;;;;4909883;29;19923;-81
2023/04/25 01:36:41;;;;;;;;;;;;;;;;;;4931260;29;19922;-82
2023/04/25 01:39:06;;;;;;;;;;;;;;;;;;4899236;23;20403;-78
2023/04/25 01:41:31;;;;;;;;;;;;;;;;;;4872853;29;19979;-77
2023/04/25 01:43:57;;;;;;;;;;;;;;;;;;4882512;29;19915;-79
2023/04/25 01:46:22;;;;;;;;;;;;;;;;;;4881068;29;19922;-77
2023/04/25 01:48:48;;;;;;;;;;;;;;;;;;4893212;29;19926;-77
2023/04/25 01:51:13;;;;;;;;;;;;;;;;;;4885078;29;19915;-78
2023/04/25 01:53:38;;;;;;;;;;;;;;;;;;4896626;29;20299;-78
2023/04/25 01:56:04;;;;;;;;;;;;;;;;;;4895388;29;20306;-77
2023/04/25 01:58:32;;;;;;;;;;;;;;;;;;4880995;29;19920;-78
2023/04/25 02:01:16;;;;;;;;;;;;;;;;;;4885500;29;20361;-78
2023/04/25 02:03:48;;;;;;;;;;;;;;;;;;4875221;29;19921;-77
2023/04/25 02:06:22;;;;;;;;;;;;;;;;;;4867139;29;19916;-78
2023/04/25 02:08:48;;;;;;;;;;;;;;;;;;4884307;29;19931;-77
2023/04/25 02:11:13;;;;;;;;;;;;;;;;;;4883831;29;20299;-78
2023/04/25 02:13:44;;;;;;;;;;;;;;;;;;4883812;29;19968;-77
2023/04/25 02:16:30;;;;;;;;;;;;;;;;;;4868487;29;20006;-78
2023/04/25 02:18:55;;;;;;;;;;;;;;;;;;4849919;29;20431;-78
2023/04/25 02:21:21;;;;;;;;;;;;;;;;;;4880157;29;19916;-77
2023/04/25 02:23:48;;;;;;;;;;;;;;;;;;4868766;29;19916;-78
2023/04/25 02:26:14;;;;;;;;;;;;;;;;;;4889579;29;19916;-78
2023/04/25 02:28:40;;;;;;;;;;;;;;;;;;4877468;29;19913;-78
2023/04/25 02:31:05;;;;;;;;;;;;;;;;;;4862356;29;20456;-78
2023/04/25 02:33:31;;;;;;;;;;;;;;;;;;4890530;29;20388;-78
2023/04/25 02:35:56;;;;;;;;;;;;;;;;;;4865366;29;19958;-78
2023/04/25 02:38:22;;;;;;;;;;;;;;;;;;4879105;29;19927;-77
2023/04/25 02:40:47;;;;;;;;;;;;;;;;;;4878498;29;20431;-77
2023/04/25 02:43:13;;;;;;;;;;;;;;;;;;4878406;29;20010;-78
2023/04/25 02:45:38;;;;;;;;;;;;;;;;;;4869462;29;20277;-77
2023/04/25 02:48:03;;;;;;;;;;;;;;;;;;4888134;29;19983;-78
2023/04/25 02:50:31;;;;;;;;;;;;;;;;;;4892545;29;19929;-77
2023/04/25 02:52:56;;;;;;;;;;;;;;;;;;4879179;29;19916;-77
2023/04/25 02:55:26;;;;;;;;;;;;;;;;;;4878368;29;19970;-78
2023/04/25 02:57:52;;;;;;;;;;;;;;;;;;4892777;29;20373;-78
2023/04/25 03:00:28;;;;;;;;;;;;;;;;;;4879212;29;19967;-77
2023/04/25 03:02:54;;;;;;;;;;;;;;;;;;4878124;29;19954;-77
2023/04/25 03:05:20;;;;;;;;;;;;;;;;;;4885923;29;20030;-78
2023/04/25 03:07:45;;;;;;;;;;;;;;;;;;4893807;29;20439;-78
2023/04/25 03:10:10;;;;;;;;;;;;;;;;;;4861714;29;19923;-78
2023/04/25 03:12:36;;;;;;;;;;;;;;;;;;4879725;29;19923;-77
2023/04/25 03:15:02;;;;;;;;;;;;;;;;;;4884293;29;20018;-78
2023/04/25 03:17:28;;;;;;;;;;;;;;;;;;4895143;29;19916;-78
2023/04/25 03:19:54;;;;;;;;;;;;;;;;;;4876575;29;19952;-79
2023/04/25 03:22:19;;;;;;;;;;;;;;;;;;4882151;29;19916;-77
2023/04/25 03:24:44;;;;;;;;;;;;;;;;;;4878648;29;19920;-78
2023/04/25 03:27:10;;;;;;;;;;;;;;;;;;4885228;29;19916;-78
2023/04/25 03:29:35;;;;;;;;;;;;;;;;;;4894272;29;20045;-78
2023/04/25 03:32:03;;;;;;;;;;;;;;;;;;4879425;29;19924;-77
2023/04/25 03:34:28;;;;;;;;;;;;;;;;;;4882101;29;19926;-78
2023/04/25 03:36:55;;;;;;;;;;;;;;;;;;4896753;29;21328;-78
2023/04/25 03:39:21;;;;;;;;;;;;;;;;;;4882744;29;19920;-78
2023/04/25 03:41:49;;;;;;;;;;;;;;;;;;4895497;29;20380;-78
2023/04/25 03:44:16;;;;;;;;;;;;;;;;;;4878465;29;19916;-78
2023/04/25 03:46:41;;;;;;;;;;;;;;;;;;4897666;29;19952;-78
2023/04/25 03:49:07;;;;;;;;;;;;;;;;;;4882445;29;19931;-78
2023/04/25 03:51:53;;;;;;;;;;;;;;;;;;4874520;29;20292;-77
2023/04/25 03:54:18;;;;;;;;;;;;;;;;;;4879978;29;19927;-78
2023/04/25 03:56:54;;;;;;;;;;;;;;;;;;4879806;29;19916;-77
2023/04/25 03:59:22;;;;;;;;;;;;;;;;;;4871463;29;19938;-78
2023/04/25 04:01:47;;;;;;;;;;;;;;;;;;4879220;29;19913;-78
2023/04/25 04:04:12;;;;;;;;;;;;;;;;;;4879572;29;20392;-78
2023/04/25 04:06:38;;;;;;;;;;;;;;;;;;4896665;29;19916;-77
2023/04/25 04:09:11;;;;;;;;;;;;;;;;;;4881495;29;19940;-78
2023/04/25 04:11:38;;;;;;;;;;;;;;;;;;4894607;29;19962;-79
2023/04/25 04:14:03;;;;;;;;;;;;;;;;;;4878218;29;19912;-78
2023/04/25 04:16:29;;;;;;;;;;;;;;;;;;4867150;29;19936;-78
2023/04/25 04:18:54;;;;;;;;;;;;;;;;;;4871907;29;19931;-78
2023/04/25 04:21:19;;;;;;;;;;;;;;;;;;4884097;29;19923;-77
2023/04/25 04:23:46;;;;;;;;;;;;;;;;;;4882464;29;19979;-77
2023/04/25 04:26:12;;;;;;;;;;;;;;;;;;4892773;29;19920;-78
2023/04/25 04:29:10;;;;;;;;;;;;;;;;;;4904645;29;19915;-78
2023/04/25 04:31:50;;;;;;;;;;;;;;;;;;4891166;29;19940;-79
2023/04/25 04:34:16;;;;;;;;;;;;;;;;;;4906389;29;19916;-79
2023/04/25 04:36:41;;;;;;;;;;;;;;;;;;4884612;29;19912;-78
2023/04/25 04:39:08;;;;;;;;;;;;;;;;;;4893263;29;19920;-77
2023/04/25 04:41:37;;;;;;;;;;;;;;;;;;4871728;29;19916;-78
2023/04/25 04:44:13;;;;;;;;;;;;;;;;;;4884351;29;19916;-77
2023/04/25 04:47:06;;;;;;;;;;;;;;;;;;4898865;29;20018;-77
2023/04/25 04:49:39;;;;;;;;;;;;;;;;;;4884566;29;19923;-77
2023/04/25 04:52:28;;;;;;;;;;;;;;;;;;4888192;29;19916;-79
2023/04/25 04:55:22;;;;;;;;;;;;;;;;;;4876311;29;19935;-79
2023/04/25 04:58:19;;;;;;;;;;;;;;;;;;4879031;29;19942;-77
2023/04/25 05:00:51;;;;;;;;;;;;;;;;;;4864243;29;19916;-78
2023/04/25 05:03:46;;;;;;;;;;;;;;;;;;4875420;29;19920;-78
2023/04/25 05:06:31;;;;;;;;;;;;;;;;;;4882670;29;20470;-77
2023/04/25 05:09:15;;;;;;;;;;;;;;;;;;4874899;29;20007;-78
2023/04/25 05:12:15;;;;;;;;;;;;;;;;;;4894062;29;19946;-77
2023/04/25 05:14:57;;;;;;;;;;;;;;;;;;4868386;29;20002;-78
2023/04/25 05:17:53;;;;;;;;;;;;;;;;;;4892168;29;19916;-78
2023/04/25 05:20:44;;;;;;;;;;;;;;;;;;4865318;29;19924;-77
2023/04/25 05:23:21;;;;;;;;;;;;;;;;;;4879705;29;19916;-77
2023/04/25 05:25:59;;;;;;;;;;;;;;;;;;4868211;29;19926;-78
2023/04/25 05:28:43;;;;;;;;;;;;;;;;;;4877831;29;19964;-78
2023/04/25 05:31:26;;;;;;;;;;;;;;;;;;4874695;29;20443;-76
2023/04/25 05:34:06;;;;;;;;;;;;;;;;;;4880013;29;19916;-78
2023/04/25 05:36:54;;;;;;;;;;;;;;;;;;4895878;29;19923;-78
2023/04/25 05:39:19;;;;;;;;;;;;;;;;;;4879444;29;19924;-78
2023/04/25 05:42:01;;;;;;;;;;;;;;;;;;4880894;29;19939;-78
2023/04/25 05:45:02;;;;;;;;;;;;;;;;;;4898480;29;20256;-77
2023/04/25 05:48:03;;;;;;;;;;;;;;;;;;4860218;29;19916;-77
2023/04/25 05:51:03;;;;;;;;;;;;;;;;;;4871692;29;19919;-77
2023/04/25 05:53:43;;;;;;;;;;;;;;;;;;4875916;29;19938;-78
2023/04/25 05:56:08;;;;;;;;;;;;;;;;;;4875663;29;20368;-77
2023/04/25 05:58:34;;;;;;;;;;;;;;;;;;4879378;29;19927;-77
2023/04/25 06:00:59;;;;;;;;;;;;;;;;;;4877527;29;19951;-78
2023/04/25 06:03:25;;;;;;;;;;;;;;;;;;4872687;29;19987;-77
2023/04/25 06:05:51;;;;;;;;;;;;;;;;;;4878942;29;19932;-78
2023/04/25 06:08:16;;;;;;;;;;;;;;;;;;4878043;29;20390;-77
2023/04/25 06:10:42;;;;;;;;;;;;;;;;;;4878680;29;19925;-78
2023/04/25 06:13:07;;;;;;;;;;;;;;;;;;4869048;29;19916;-78
2023/04/25 06:15:34;;;;;;;;;;;;;;;;;;4893007;29;20010;-78
2023/04/25 06:18:00;;;;;;;;;;;;;;;;;;4861711;29;19916;-77
2023/04/25 06:20:25;;;;;;;;;;;;;;;;;;4878080;29;19919;-77
2023/04/25 06:22:53;;;;;;;;;;;;;;;;;;4896078;29;19916;-77
2023/04/25 06:25:20;;;;;;;;;;;;;;;;;;4895619;29;19919;-76
2023/04/25 06:27:46;;;;;;;;;;;;;;;;;;4871566;29;20432;-76
2023/04/25 06:30:12;;;;;;;;;;;;;;;;;;4890270;29;19919;-77
2023/04/25 06:32:38;;;;;;;;;;;;;;;;;;4880092;29;20065;-78
2023/04/25 06:35:03;;;;;;;;;;;;;;;;;;4882720;29;19927;-78
2023/04/25 06:37:29;;;;;;;;;;;;;;;;;;4873391;29;19921;-77
2023/04/25 06:39:55;;;;;;;;;;;;;;;;;;4890806;29;19920;-77
2023/04/25 06:42:20;;;;;;;;;;;;;;;;;;4876453;29;19959;-77
2023/04/25 06:44:51;;;;;;;;;;;;;;;;;;4886215;29;19900;-82
2023/04/25 06:47:18;;;;;;;;;;;;;;;;;;4891361;29;20010;-78
2023/04/25 06:49:43;;;;;;;;;;;;;;;;;;4889996;29;19952;-78
2023/04/25 06:52:10;;;;;;;;;;;;;;;;;;4866251;29;19920;-79
2023/04/25 06:54:36;;;;;;;;;;;;;;;;;;4878696;29;20385;-79
2023/04/25 06:57:27;;;;;;;;;;;;;;;;;;4889734;29;20003;-79
2023/04/25 06:59:54;;;;;;;;;;;;;;;;;;4854211;29;19920;-79
2023/04/25 07:02:21;;;;;;;;;;;;;;;;;;4862290;29;19923;-78
2023/04/25 07:04:46;;;;;;;;;;;;;;;;;;4888867;29;20265;-79
2023/04/25 07:07:11;;;;;;;;;;;;;;;;;;4887827;29;19916;-77
2023/04/25 07:09:43;;;;;;;;;;;;;;;;;;4881945;29;19923;-79
2023/04/25 07:12:09;;;;;;;;;;;;;;;;;;4880265;29;19916;-79
2023/04/25 07:14:34;;;;;;;;;;;;;;;;;;4890226;29;20392;-79
2023/04/25 07:17:00;;;;;;;;;;;;;;;;;;4868375;29;19994;-79
2023/04/25 07:19:29;;;;;;;;;;;;;;;;;;4893438;29;20039;-79
2023/04/25 07:21:57;;;;;;;;;;;;;;;;;;4875936;29;20018;-79
2023/04/25 07:24:22;;;;;;;;;;;;;;;;;;4881755;29;19963;-79
2023/04/25 07:26:49;;;;;;;;;;;;;;;;;;4898693;29;19920;-79
2023/04/25 07:29:24;;;;;;;;;;;;;;;;;;4900678;29;19927;-79
2023/04/25 07:31:50;;;;;;;;;;;;;;;;;;4896932;29;19916;-78
2023/04/25 07:34:15;;;;;;;;;;;;;;;;;;4887323;29;20004;-77
2023/04/25 07:36:41;;;;;;;;;;;;;;;;;;4905446;29;19967;-77
2023/04/25 07:39:06;;;;;;;;;;;;;;;;;;4925608;23;20322;-82
2023/04/25 07:41:31;;;;;;;;;;;;;;;;;;4907177;29;19958;-82
2023/04/25 07:43:57;;;;;;;;;;;;;;;;;;4915534;29;19943;-85
2023/04/25 07:46:22;;;;;;;;;;;;;;;;;;4916036;29;19922;-86
2023/04/25 07:48:48;;;;;;;;;;;;;;;;;;4874980;29;20344;-87
2023/04/25 07:51:13;;;;;;;;;;;;;;;;;;4909984;29;19916;-81
2023/04/25 07:53:40;;;;;;;;;;;;;;;;;;4896998;29;20042;-86
2023/04/25 07:56:10;;;;;;;;;;;;;;;;;;4886326;29;19959;-88
2023/04/25 07:58:38;;;;;;;;;;;;;;;;;;4889082;29;19919;-86
2023/04/25 08:01:11;;;;;;;;;;;;;;;;;;4910874;29;19915;-83
2023/04/25 08:03:58;;;;;;;;;;;;;;;;;;4901996;29;20291;-83
2023/04/25 08:06:43;;;;;;;;;;;;;;;;;;4904095;29;19923;-83
2023/04/25 08:09:20;;;;;;;;;;;;;;;;;;4910081;29;19916;-82
2023/04/25 08:11:46;;;;;;;;;;;;;;;;;;4899681;29;19920;-83
2023/04/25 08:14:14;;;;;;;;;;;;;;;;;;4890161;29;19974;-85
2023/04/25 08:16:42;;;;;;;;;;;;;;;;;;4915095;29;19919;-80
2023/04/25 08:19:07;;;;;;;;;;;;;;;;;;4910375;29;19974;-82
2023/04/25 08:21:33;;;;;;;;;;;;;;;;;;4907495;29;19915;-80
2023/04/25 08:24:05;;;;;;;;;;;;;;;;;;4901272;29;19915;-84
2023/04/25 08:26:37;;;;;;;;;;;;;;;;;;4903126;29;19915;-83
2023/04/25 08:29:02;;;;;;;;;;;;;;;;;;4908827;29;19915;-84
2023/04/25 08:31:27;;;;;;;;;;;;;;;;;;4899382;29;19922;-84
2023/04/25 08:33:59;;;;;;;;;;;;;;;;;;4894680;29;19916;-83
2023/04/25 08:36:32;;;;;;;;;;;;;;;;;;4899978;29;19958;-82
2023/04/25 08:38:58;;;;;;;;;;;;;;;;;;4905412;29;20315;-81
2023/04/25 08:41:24;;;;;;;;;;;;;;;;;;4905654;29;19924;-80
2023/04/25 08:43:53;;;;;;;;;;;;;;;;;;4914350;29;20372;-82
2023/04/25 08:46:23;;;;;;;;;;;;;;;;;;4901523;29;19915;-83
2023/04/25 08:49:11;;;;;;;;;;;;;;;;;;4909901;29;19922;-81
2023/04/25 08:51:39;;;;;;;;;;;;;;;;;;4911086;29;19916;-81
2023/04/25 08:54:04;;;;;;;;;;;;;;;;;;4899626;29;19920;-81
2023/04/25 08:56:30;;;;;;;;;;;;;;;;;;4896752;29;19920;-84
2023/04/25 08:58:55;;;;;;;;;;;;;;;;;;4905642;29;20414;-82
2023/04/25 09:01:21;;;;;;;;;;;;;;;;;;4890565;29;19955;-83
2023/04/25 09:03:50;;;;;;;;;;;;;;;;;;4881272;29;19971;-83
2023/04/25 09:06:16;;;;;;;;;;;;;;;;;;4904007;29;19986;-83
2023/04/25 09:08:42;;;;;;;;;;;;;;;;;;4910570;29;20368;-80
2023/04/25 09:11:07;;;;;;;;;;;;;;;;;;4905853;29;19931;-83
2023/04/25 09:13:33;;;;;;;;;;;;;;;;;;4887932;29;20379;-82
2023/04/25 09:16:21;;;;;;;;;;;;;;;;;;4899744;29;19963;-82
2023/04/25 09:18:59;;;;;;;;;;;;;;;;;;4892344;29;19919;-82
2023/04/25 09:21:25;;;;;;;;;;;;;;;;;;4919885;29;20405;-80
2023/04/25 09:23:51;;;;;;;;;;;;;;;;;;4912513;29;19915;-80
2023/04/25 09:26:17;;;;;;;;;;;;;;;;;;4914126;29;19915;-82
2023/04/25 09:28:43;;;;;;;;;;;;;;;;;;4903461;29;19922;-82
2023/04/25 09:31:09;;;;;;;;;;;;;;;;;;4900097;29;19915;-78
2023/04/25 09:33:45;;;;;;;;;;;;;;;;;;4902324;29;19922;-78
2023/04/25 09:36:13;;;;;;;;;;;;;;;;;;4913183;29;19937;-79
2023/04/25 09:39:03;;;;;;;;;;;;;;;;;;4907625;29;19919;-82
2023/04/25 09:41:32;;;;;;;;;;;;;;;;;;4888428;29;19922;-81
2023/04/25 09:44:01;;;;;;;;;;;;;;;;;;4896794;29;20368;-81
2023/04/25 09:46:38;;;;;;;;;;;;;;;;;;4910736;29;19915;-82
2023/04/25 09:49:08;;;;;;;;;;;;;;;;;;4905821;29;19920;-87
2023/04/25 09:52:00;;;;;;;;;;;;;;;;;;4901489;29;20394;-88
2023/04/25 09:54:40;;;;;;;;;;;;;;;;;;4910710;29;19916;-89
2023/04/25 09:57:12;;;;;;;;;;;;;;;;;;4890918;29;19915;-76
2023/04/25 09:59:38;;;;;;;;;;;;;;;;;;4902008;29;19966;-77
2023/04/25 10:02:03;;;;;;;;;;;;;;;;;;4913141;29;19915;-77
2023/04/25 10:04:34;;;;;;;;;;;;;;;;;;4900571;29;20005;-77
2023/04/25 10:07:05;;;;;;;;;;;;;;;;;;4906255;29;19916;-77
2023/04/25 10:09:33;;;;;;;;;;;;;;;;;;4907924;29;20248;-76
2023/04/25 10:11:59;;;;;;;;;;;;;;;;;;4883794;29;19977;-76
2023/04/25 10:14:25;;;;;;;;;;;;;;;;;;4912728;29;19916;-78
2023/04/25 10:16:53;;;;;;;;;;;;;;;;;;4902364;29;20403;-77
2023/04/25 10:19:18;;;;;;;;;;;;;;;;;;4904407;29;19919;-77
2023/04/25 10:21:44;;;;;;;;;;;;;;;;;;4909508;29;20026;-75
2023/04/25 10:24:09;;;;;;;;;;;;;;;;;;4900032;29;19916;-76
2023/04/25 10:26:35;;;;;;;;;;;;;;;;;;4914569;29;19915;-90
2023/04/25 10:29:03;;;;;;;;;;;;;;;;;;4909348;29;19967;-89
2023/04/25 10:31:28;;;;;;;;;;;;;;;;;;4908920;29;19922;-90
2023/04/25 10:33:54;;;;;;;;;;;;;;;;;;4901476;29;20366;-88
2023/04/25 10:36:21;;;;;;;;;;;;;;;;;;4913255;29;19922;-90
2023/04/25 10:38:46;;;;;;;;;;;;;;;;;;4908002;29;19919;-90
2023/04/25 10:41:11;;;;;;;;;;;;;;;;;;4916454;29;20796;-90
2023/04/25 10:43:37;;;;;;;;;;;;;;;;;;4921614;29;19918;-89
2023/04/25 10:46:02;;;;;;;;;;;;;;;;;;4922202;29;19930;-88
2023/04/25 10:48:28;;;;;;;;;;;;;;;;;;4908367;29;19937;-89
2023/04/25 10:50:53;;;;;;;;;;;;;;;;;;4913859;29;19971;-91
2023/04/25 10:53:19;;;;;;;;;;;;;;;;;;4907596;29;20298;-89
2023/04/25 10:55:44;;;;;;;;;;;;;;;;;;4886727;29;19915;-90
2023/04/25 10:58:10;;;;;;;;;;;;;;;;;;4913867;29;20157;-89
2023/04/25 11:00:40;;;;;;;;;;;;;;;;;;4916237;29;19971;-89
2023/04/25 11:03:05;;;;;;;;;;;;;;;;;;4917461;29;19915;-90
2023/04/25 11:05:30;;;;;;;;;;;;;;;;;;4904952;29;19923;-89
2023/04/25 11:07:59;;;;;;;;;;;;;;;;;;4896339;29;19916;-88
2023/04/25 11:10:24;;;;;;;;;;;;;;;;;;4901124;29;19922;-90
2023/04/25 11:12:50;;;;;;;;;;;;;;;;;;4900120;29;19916;-90
2023/04/25 11:15:15;;;;;;;;;;;;;;;;;;4873808;29;19971;-76
2023/04/25 11:17:41;;;;;;;;;;;;;;;;;;4909424;29;19919;-78
2023/04/25 11:20:08;;;;;;;;;;;;;;;;;;4914173;29;20022;-77
2023/04/25 11:22:34;;;;;;;;;;;;;;;;;;4913655;29;19918;-79
2023/04/25 11:24:59;;;;;;;;;;;;;;;;;;4906642;29;19916;-77
2023/04/25 11:27:25;;;;;;;;;;;;;;;;;;4909069;29;20371;-90
2023/04/25 11:29:50;;;;;;;;;;;;;;;;;;4917026;29;19938;-91
2023/04/25 11:32:15;;;;;;;;;;;;;;;;;;4875415;29;19915;-91
2023/04/25 11:34:41;;;;;;;;;;;;;;;;;;4899662;29;19922;-90
2023/04/25 11:37:06;;;;;;;;;;;;;;;;;;4893584;29;20052;-90
2023/04/25 11:39:32;;;;;;;;;;;;;;;;;;4892986;29;19954;-90
2023/04/25 11:41:57;;;;;;;;;;;;;;;;;;4900431;29;20294;-89
2023/04/25 11:44:23;;;;;;;;;;;;;;;;;;4891093;29;19916;-90
2023/04/25 11:46:48;;;;;;;;;;;;;;;;;;4915675;29;19943;-90
2023/04/25 11:49:13;;;;;;;;;;;;;;;;;;4896568;29;19915;-90
2023/04/25 11:51:39;;;;;;;;;;;;;;;;;;4922178;29;19915;-90
2023/04/25 11:54:05;;;;;;;;;;;;;;;;;;4904375;29;19919;-91
2023/04/25 11:56:31;;;;;;;;;;;;;;;;;;4894458;29;20323;-91
2023/04/25 11:58:56;;;;;;;;;;;;;;;;;;4906919;29;19942;-90
2023/04/25 12:01:22;;;;;;;;;;;;;;;;;;4880734;29;19915;-91
2023/04/25 12:03:47;;;;;;;;;;;;;;;;;;4906856;29;20336;-90
2023/04/25 12:06:12;;;;;;;;;;;;;;;;;;4916137;29;19922;-89
2023/04/25 12:08:38;;;;;;;;;;;;;;;;;;4905442;29;19915;-89
2023/04/25 12:11:03;;;;;;;;;;;;;;;;;;4880035;29;20010;-88
2023/04/25 12:13:29;;;;;;;;;;;;;;;;;;4896041;29;19925;-92
2023/04/25 12:15:56;;;;;;;;;;;;;;;;;;4873089;29;19971;-90
2023/04/25 12:18:21;;;;;;;;;;;;;;;;;;4899769;29;19963;-89
2023/04/25 12:20:46;;;;;;;;;;;;;;;;;;4904922;29;19919;-89
2023/04/25 12:23:12;;;;;;;;;;;;;;;;;;4912611;29;19915;-89
2023/04/25 12:25:38;;;;;;;;;;;;;;;;;;4922129;29;19922;-89
2023/04/25 12:28:03;;;;;;;;;;;;;;;;;;4892680;29;19950;-89
2023/04/25 12:30:28;;;;;;;;;;;;;;;;;;4921568;29;19958;-87
2023/04/25 12:32:54;;;;;;;;;;;;;;;;;;4904588;29;20398;-83
2023/04/25 12:35:19;;;;;;;;;;;;;;;;;;4912334;29;19915;-78
2023/04/25 12:37:45;;;;;;;;;;;;;;;;;;4904711;29;19963;-77
2023/04/25 12:40:11;;;;;;;;;;;;;;;;;;4914162;29;19919;-75
2023/04/25 12:42:36;;;;;;;;;;;;;;;;;;4905485;29;19919;-76
2023/04/25 12:45:01;;;;;;;;;;;;;;;;;;4915348;29;19915;-77
2023/04/25 12:47:27;;;;;;;;;;;;;;;;;;4895706;29;19965;-77
2023/04/25 12:49:53;;;;;;;;;;;;;;;;;;4901703;29;20455;-77
2023/04/25 12:52:18;;;;;;;;;;;;;;;;;;4913101;29;19915;-76
2023/04/25 12:54:43;;;;;;;;;;;;;;;;;;4904575;29;20062;-76
2023/04/25 12:57:09;;;;;;;;;;;;;;;;;;4908575;29;20307;-74
2023/04/25 12:59:34;;;;;;;;;;;;;;;;;;4899666;29;19924;-91
2023/04/25 13:02:00;;;;;;;;;;;;;;;;;;4867217;29;19971;-91
2023/04/25 13:04:25;;;;;;;;;;;;;;;;;;4914255;29;19922;-90
2023/04/25 13:06:50;;;;;;;;;;;;;;;;;;4906747;29;20001;-89
2023/04/25 13:09:16;;;;;;;;;;;;;;;;;;4893843;29;20360;-90
2023/04/25 13:11:41;;;;;;;;;;;;;;;;;;4883015;29;20022;-90
2023/04/25 13:14:07;;;;;;;;;;;;;;;;;;4918585;29;20319;-92
2023/04/25 13:16:33;;;;;;;;;;;;;;;;;;4900326;29;20502;-92
2023/04/25 13:18:58;;;;;;;;;;;;;;;;;;4888924;29;19919;-92
2023/04/25 13:21:24;;;;;;;;;;;;;;;;;;4884560;29;19922;-91
2023/04/25 13:23:49;;;;;;;;;;;;;;;;;;4879395;29;20011;-93
2023/04/25 13:26:15;;;;;;;;;;;;;;;;;;4886264;29;20283;-92
2023/04/25 13:28:41;;;;;;;;;;;;;;;;;;4897777;29;20415;-91
2023/04/25 13:31:06;;;;;;;;;;;;;;;;;;4868824;29;19919;-91
2023/04/25 13:33:32;;;;;;;;;;;;;;;;;;4898045;29;19950;-92
2023/04/25 13:35:57;;;;;;;;;;;;;;;;;;4891179;29;19915;-90
2023/04/25 13:38:22;;;;;;;;;;;;;;;;;;4895537;29;19915;-91
2023/04/25 13:40:48;;;;;;;;;;;;;;;;;;4917358;29;19915;-90
2023/04/25 13:43:13;;;;;;;;;;;;;;;;;;4906886;29;20376;-90
2023/04/25 13:45:39;;;;;;;;;;;;;;;;;;4924031;29;19943;-92
2023/04/25 13:48:04;;;;;;;;;;;;;;;;;;4917837;29;19916;-88
2023/04/25 13:50:30;;;;;;;;;;;;;;;;;;4907792;29;19915;-86
2023/04/25 13:52:55;;;;;;;;;;;;;;;;;;4912090;29;19916;-89
2023/04/25 13:55:20;;;;;;;;;;;;;;;;;;4902201;29;19915;-89
2023/04/25 13:57:46;;;;;;;;;;;;;;;;;;4893289;29;19919;-91
2023/04/25 14:00:11;;;;;;;;;;;;;;;;;;4874988;29;19919;-91
2023/04/25 14:02:37;;;;;;;;;;;;;;;;;;4900193;29;20471;-88
2023/04/25 14:05:03;;;;;;;;;;;;;;;;;;4891447;29;19915;-88
2023/04/25 14:07:28;;;;;;;;;;;;;;;;;;4889919;29;19915;-89
2023/04/25 14:09:53;;;;;;;;;;;;;;;;;;4899531;29;19915;-89
2023/04/25 14:12:19;;;;;;;;;;;;;;;;;;4917510;29;20291;-89
2023/04/25 14:14:44;;;;;;;;;;;;;;;;;;4912175;29;19923;-86
2023/04/25 14:17:10;;;;;;;;;;;;;;;;;;4898640;29;19916;-86
2023/04/25 14:19:37;;;;;;;;;;;;;;;;;;4898378;29;20336;-86
2023/04/25 14:22:03;;;;;;;;;;;;;;;;;;4897927;29;19920;-84
2023/04/25 14:24:28;;;;;;;;;;;;;;;;;;4896719;29;19943;-85
2023/04/25 14:26:54;;;;;;;;;;;;;;;;;;4904762;29;19915;-86
2023/04/25 14:29:19;;;;;;;;;;;;;;;;;;4904900;29;19916;-87
2023/04/25 14:31:45;;;;;;;;;;;;;;;;;;4894551;29;20327;-85
2023/04/25 14:34:11;;;;;;;;;;;;;;;;;;4884054;29;20007;-83
2023/04/25 14:36:37;;;;;;;;;;;;;;;;;;4911365;29;19919;-84
2023/04/25 14:39:02;;;;;;;;;;;;;;;;;;4907161;29;19926;-87
2023/04/25 14:41:28;;;;;;;;;;;;;;;;;;4905520;29;20006;-88
2023/04/25 14:43:54;;;;;;;;;;;;;;;;;;4898555;29;19954;-87
2023/04/25 14:46:20;;;;;;;;;;;;;;;;;;4905413;29;19916;-85
2023/04/25 14:48:46;;;;;;;;;;;;;;;;;;4899547;29;19915;-85
2023/04/25 14:51:12;;;;;;;;;;;;;;;;;;4898800;29;19926;-85
2023/04/25 14:53:38;;;;;;;;;;;;;;;;;;4896886;29;19915;-87
2023/04/25 14:56:03;;;;;;;;;;;;;;;;;;4893011;29;19982;-86
2023/04/25 14:58:29;;;;;;;;;;;;;;;;;;4882183;29;19919;-86
2023/04/25 15:00:55;;;;;;;;;;;;;;;;;;4936685;29;19899;-82
2023/04/25 15:03:20;;;;;;;;;;;;;;;;;;4931400;29;19915;-87
2023/04/25 15:05:45;;;;;;;;;;;;;;;;;;4918154;29;19949;-86
2023/04/25 15:08:11;;;;;;;;;;;;;;;;;;4924747;29;19957;-87
2023/04/25 15:10:36;;;;;;;;;;;;;;;;;;4917815;29;20296;-88
2023/04/25 15:13:02;;;;;;;;;;;;;;;;;;4907806;29;20010;-85
2023/04/25 15:15:27;;;;;;;;;;;;;;;;;;4908336;29;20295;-85
2023/04/25 15:17:56;;;;;;;;;;;;;;;;;;4914224;29;20335;-85
2023/04/25 15:20:21;;;;;;;;;;;;;;;;;;4902103;29;20090;-84
2023/04/25 15:22:48;;;;;;;;;;;;;;;;;;4908725;29;20047;-86
2023/04/25 15:25:13;;;;;;;;;;;;;;;;;;4909697;29;20383;-83
2023/04/25 15:27:43;;;;;;;;;;;;;;;;;;4914134;29;19968;-85
2023/04/25 15:30:10;;;;;;;;;;;;;;;;;;4920086;29;20006;-85
2023/04/25 15:32:36;;;;;;;;;;;;;;;;;;4898818;29;20078;-87
2023/04/25 15:35:01;;;;;;;;;;;;;;;;;;4907316;29;19991;-86
2023/04/25 15:37:27;;;;;;;;;;;;;;;;;;4918552;29;19942;-86
2023/04/25 15:39:52;;;;;;;;;;;;;;;;;;4903440;29;20408;-86
2023/04/25 15:42:18;;;;;;;;;;;;;;;;;;4916260;29;19915;-88
2023/04/25 15:44:43;;;;;;;;;;;;;;;;;;4890745;29;19915;-89
2023/04/25 15:47:09;;;;;;;;;;;;;;;;;;4909846;29;19947;-89
2023/04/25 15:49:34;;;;;;;;;;;;;;;;;;4896162;29;19919;-89
2023/04/25 15:52:00;;;;;;;;;;;;;;;;;;4902988;29;19961;-90
2023/04/25 15:54:26;;;;;;;;;;;;;;;;;;4899745;29;19915;-88
2023/04/25 15:56:52;;;;;;;;;;;;;;;;;;4907162;29;20417;-87
2023/04/25 15:59:17;;;;;;;;;;;;;;;;;;4893044;29;19927;-89
2023/04/25 16:01:43;;;;;;;;;;;;;;;;;;4914450;29;19922;-89
2023/04/25 16:04:09;;;;;;;;;;;;;;;;;;4921962;29;19918;-91
2023/04/25 16:06:35;;;;;;;;;;;;;;;;;;4891159;29;20441;-85
2023/04/25 16:09:00;;;;;;;;;;;;;;;;;;4915095;29;19922;-90
2023/04/25 16:11:26;;;;;;;;;;;;;;;;;;4893391;29;20260;-81
2023/04/25 16:13:51;;;;;;;;;;;;;;;;;;4903675;29;20299;-83
2023/04/25 16:16:17;;;;;;;;;;;;;;;;;;4899012;29;19919;-79
2023/04/25 16:18:42;;;;;;;;;;;;;;;;;;4906248;29;20422;-91
2023/04/25 16:21:07;;;;;;;;;;;;;;;;;;4906899;29;19979;-89
2023/04/25 16:23:33;;;;;;;;;;;;;;;;;;4893015;29;19915;-90
2023/04/25 16:25:58;;;;;;;;;;;;;;;;;;4874381;29;20303;-89
2023/04/25 16:28:24;;;;;;;;;;;;;;;;;;4904419;29;19916;-89
2023/04/25 16:30:49;;;;;;;;;;;;;;;;;;4917023;29;19986;-88
2023/04/25 16:33:15;;;;;;;;;;;;;;;;;;4919183;29;19915;-92
2023/04/25 16:35:40;;;;;;;;;;;;;;;;;;4905446;29;19912;-89
2023/04/25 16:38:06;;;;;;;;;;;;;;;;;;4911652;29;19927;-89
2023/04/25 16:40:31;;;;;;;;;;;;;;;;;;4928966;29;19930;-88
2023/04/25 16:42:56;;;;;;;;;;;;;;;;;;4929108;29;20394;-86
2023/04/25 16:45:23;;;;;;;;;;;;;;;;;;4918414;29;19919;-86
2023/04/25 16:47:48;;;;;;;;;;;;;;;;;;4927560;29;19958;-89
2023/04/25 16:50:14;;;;;;;;;;;;;;;;;;4918026;29;19907;-87
2023/04/25 16:52:39;;;;;;;;;;;;;;;;;;4931473;29;19922;-89